createdAt,value
2017-12-14T00:00:59.697Z,5.10
2017-12-14T00:03:29.594Z,5.00
2017-12-14T00:05:59.023Z,5.00
2017-12-14T00:08:28.018Z,5.10
2017-12-14T00:10:56.268Z,5.10
2017-12-14T00:13:24.548Z,5.10
2017-12-14T00:15:52.802Z,5.00
2017-12-14T00:18:21.082Z,5.00
2017-12-14T00:20:49.383Z,5.10
2017-12-14T00:23:17.649Z,5.10
2017-12-14T00:25:45.943Z,5.10
2017-12-14T00:28:14.196Z,5.10
2017-12-14T00:30:41.689Z,5.10
2017-12-14T00:33:10.016Z,5.10
2017-12-14T00:35:38.265Z,5.00
2017-12-14T00:38:06.578Z,5.10
2017-12-14T00:40:34.822Z,5.10
2017-12-14T00:43:03.084Z,5.10
2017-12-14T00:45:31.375Z,5.10
2017-12-14T00:47:59.663Z,5.10
2017-12-14T00:50:28.775Z,5.10
2017-12-14T00:52:57.023Z,5.00
2017-12-14T00:55:25.328Z,5.00
2017-12-14T00:57:53.570Z,5.00
2017-12-14T01:00:21.868Z,4.90
2017-12-14T01:02:50.115Z,5.00
2017-12-14T01:05:18.376Z,5.00
2017-12-14T01:07:46.662Z,4.90
2017-12-14T01:10:14.907Z,4.90
2017-12-14T01:12:43.199Z,5.00
2017-12-14T01:15:11.442Z,4.90
2017-12-14T01:17:39.690Z,4.90
2017-12-14T01:20:07.974Z,4.90
2017-12-14T01:22:36.215Z,4.90
2017-12-14T01:25:04.515Z,5.00
2017-12-14T01:27:32.766Z,5.00
2017-12-14T01:30:01.038Z,4.90
2017-12-14T01:32:30.473Z,4.80
2017-12-14T01:34:59.793Z,5.00
2017-12-14T01:37:29.113Z,5.00
2017-12-14T01:39:57.398Z,4.90
2017-12-14T01:42:25.649Z,4.90
2017-12-14T01:44:58.972Z,4.90
2017-12-14T01:47:28.037Z,4.90
2017-12-14T01:49:56.319Z,5.00
2017-12-14T01:52:24.574Z,5.00
2017-12-14T01:54:52.849Z,4.90
2017-12-14T01:57:21.104Z,4.90
2017-12-14T01:59:49.408Z,4.80
2017-12-14T02:02:17.662Z,4.80
2017-12-14T02:04:45.910Z,4.80
2017-12-14T02:07:13.422Z,4.80
2017-12-14T02:09:41.663Z,4.90
2017-12-14T02:12:09.943Z,5.00
2017-12-14T02:14:38.206Z,4.90
2017-12-14T02:17:06.467Z,4.80
2017-12-14T02:19:34.746Z,4.80
2017-12-14T02:22:02.986Z,4.80
2017-12-14T02:24:32.187Z,4.90
2017-12-14T02:27:00.444Z,4.90
2017-12-14T02:29:30.265Z,4.90
2017-12-14T02:31:59.726Z,4.90
2017-12-14T02:34:28.987Z,5.00
2017-12-14T02:36:57.422Z,4.90
2017-12-14T02:39:25.670Z,4.90
2017-12-14T02:41:53.951Z,4.90
2017-12-14T02:44:28.913Z,4.90
2017-12-14T02:46:58.023Z,4.80
2017-12-14T02:49:26.342Z,4.90
2017-12-14T02:51:54.579Z,4.90
2017-12-14T02:54:22.832Z,4.80
2017-12-14T02:56:51.111Z,4.80
2017-12-14T02:59:19.389Z,4.70
2017-12-14T03:01:47.625Z,4.70
2017-12-14T03:04:15.897Z,4.70
2017-12-14T03:06:44.151Z,4.50
2017-12-14T03:09:12.430Z,4.40
2017-12-14T03:11:40.674Z,4.30
2017-12-14T03:14:08.955Z,4.10
2017-12-14T03:16:37.200Z,3.80
2017-12-14T03:19:05.470Z,3.60
2017-12-14T03:21:33.722Z,3.50
2017-12-14T03:24:01.994Z,3.50
2017-12-14T03:26:30.270Z,3.30
2017-12-14T03:28:59.453Z,3.20
2017-12-14T03:31:28.065Z,3.10
2017-12-14T03:33:56.301Z,3.00
2017-12-14T03:36:24.574Z,2.80
2017-12-14T03:38:52.847Z,2.80
2017-12-14T03:41:21.091Z,2.60
2017-12-14T03:43:49.374Z,2.60
2017-12-14T03:46:17.619Z,2.60
2017-12-14T03:48:45.867Z,2.60
2017-12-14T03:51:14.134Z,2.60
2017-12-14T03:53:42.370Z,2.60
2017-12-14T03:56:10.654Z,2.50
2017-12-14T03:58:38.898Z,2.50
2017-12-14T04:01:07.142Z,2.60
2017-12-14T04:03:35.410Z,2.50
2017-12-14T04:06:03.681Z,2.50
2017-12-14T04:08:31.923Z,2.60
2017-12-14T04:11:00.202Z,2.50
2017-12-14T04:13:29.387Z,2.50
2017-12-14T04:15:58.838Z,2.50
2017-12-14T04:18:27.842Z,2.50
2017-12-14T04:20:56.083Z,2.50
2017-12-14T04:23:24.346Z,2.50
2017-12-14T04:25:52.630Z,2.50
2017-12-14T04:28:20.878Z,2.50
2017-12-14T04:30:49.153Z,2.50
2017-12-14T04:33:17.401Z,2.50
2017-12-14T04:35:45.678Z,2.70
2017-12-14T04:38:13.945Z,2.70
2017-12-14T04:40:42.230Z,2.70
2017-12-14T04:43:10.466Z,2.70
2017-12-14T04:45:38.738Z,2.80
2017-12-14T04:48:06.978Z,2.80
2017-12-14T04:50:35.270Z,2.90
2017-12-14T04:53:03.562Z,2.90
2017-12-14T04:55:31.809Z,2.90
2017-12-14T04:58:00.086Z,3.00
2017-12-14T05:00:28.334Z,3.00
2017-12-14T05:02:56.569Z,3.00
2017-12-14T05:05:24.858Z,3.00
2017-12-14T05:07:53.101Z,3.10
2017-12-14T05:10:21.384Z,3.10
2017-12-14T05:12:49.664Z,3.10
2017-12-14T05:15:17.929Z,3.10
2017-12-14T05:17:46.201Z,3.10
2017-12-14T05:20:14.440Z,3.10
2017-12-14T05:22:42.711Z,3.10
2017-12-14T05:25:10.985Z,3.10
2017-12-14T05:27:39.230Z,3.10
2017-12-14T05:30:07.510Z,3.10
2017-12-14T05:32:35.760Z,3.00
2017-12-14T05:35:04.034Z,3.10
2017-12-14T05:37:32.281Z,3.10
2017-12-14T05:40:00.517Z,3.10
2017-12-14T05:42:30.041Z,3.20
2017-12-14T05:44:58.280Z,3.20
2017-12-14T05:47:26.547Z,3.20
2017-12-14T05:49:54.822Z,3.30
2017-12-14T05:52:23.069Z,3.20
2017-12-14T05:54:51.351Z,3.20
2017-12-14T05:57:19.632Z,3.30
2017-12-14T05:59:47.902Z,3.40
2017-12-14T06:02:16.144Z,3.40
2017-12-14T06:04:44.416Z,3.40
2017-12-14T06:07:12.662Z,3.40
2017-12-14T06:09:40.914Z,3.50
2017-12-14T06:12:09.186Z,3.50
2017-12-14T06:14:37.465Z,3.60
2017-12-14T06:17:05.709Z,3.60
2017-12-14T06:19:33.949Z,3.60
2017-12-14T06:22:02.234Z,3.70
2017-12-14T06:24:30.483Z,3.70
2017-12-14T06:26:59.393Z,3.70
2017-12-14T06:29:28.759Z,3.70
2017-12-14T06:31:58.746Z,3.70
2017-12-14T06:34:28.531Z,3.70
2017-12-14T06:36:56.846Z,3.70
2017-12-14T06:39:25.125Z,3.70
2017-12-14T06:41:53.402Z,3.70
2017-12-14T06:44:21.679Z,3.70
2017-12-14T06:46:49.955Z,3.80
2017-12-14T06:49:18.228Z,3.70
2017-12-14T06:51:46.490Z,3.80
2017-12-14T06:54:14.735Z,3.70
2017-12-14T06:56:42.998Z,3.70
2017-12-14T06:59:11.241Z,3.70
2017-12-14T07:01:39.518Z,3.70
2017-12-14T07:04:07.762Z,3.80
2017-12-14T07:06:36.010Z,3.70
2017-12-14T07:09:04.286Z,3.70
2017-12-14T07:11:32.531Z,3.70
2017-12-14T07:14:00.814Z,3.60
2017-12-14T07:16:35.126Z,3.70
2017-12-14T07:19:03.414Z,3.70
2017-12-14T07:21:31.671Z,3.70
2017-12-14T07:23:59.925Z,3.60
2017-12-14T07:26:31.918Z,3.60
2017-12-14T07:29:00.186Z,3.60
2017-12-14T07:31:29.701Z,3.60
2017-12-14T07:33:58.878Z,3.60
2017-12-14T07:36:27.885Z,3.60
2017-12-14T07:38:56.126Z,3.50
2017-12-14T07:41:24.370Z,3.50
2017-12-14T07:44:04.637Z,3.50
2017-12-14T07:46:35.473Z,3.50
2017-12-14T07:49:15.475Z,3.60
2017-12-14T07:51:43.735Z,3.60
2017-12-14T07:54:12.010Z,3.60
2017-12-14T07:56:40.255Z,3.60
2017-12-14T07:59:08.494Z,3.70
2017-12-14T08:01:36.777Z,3.70
2017-12-14T08:04:05.022Z,3.70
2017-12-14T08:06:33.265Z,3.70
2017-12-14T08:09:01.555Z,3.70
2017-12-14T08:11:29.789Z,3.80
2017-12-14T08:13:58.577Z,3.80
2017-12-14T08:16:26.841Z,3.80
2017-12-14T08:18:55.090Z,3.80
2017-12-14T08:21:23.358Z,3.80
2017-12-14T08:23:51.597Z,3.70
2017-12-14T08:26:19.869Z,3.70
2017-12-14T08:28:48.119Z,3.70
2017-12-14T08:31:16.390Z,3.70
2017-12-14T08:33:44.667Z,3.70
2017-12-14T08:36:12.914Z,3.80
2017-12-14T08:38:41.187Z,3.80
2017-12-14T08:41:09.441Z,3.80
2017-12-14T08:43:37.710Z,3.80
2017-12-14T08:46:05.954Z,3.90
2017-12-14T08:48:34.225Z,3.90
2017-12-14T08:51:02.504Z,4.00
2017-12-14T08:53:30.754Z,3.90
2017-12-14T08:56:00.051Z,4.00
2017-12-14T08:58:28.299Z,4.00
2017-12-14T09:00:56.542Z,4.00
2017-12-14T09:03:24.836Z,3.90
2017-12-14T09:05:53.076Z,3.90
2017-12-14T09:08:21.314Z,3.90
2017-12-14T09:10:49.585Z,4.00
2017-12-14T09:13:17.839Z,4.00
2017-12-14T09:15:46.110Z,4.10
2017-12-14T09:18:14.357Z,4.10
2017-12-14T09:20:42.659Z,4.20
2017-12-14T09:23:10.908Z,4.20
2017-12-14T09:25:39.161Z,4.20
2017-12-14T09:28:07.487Z,4.30
2017-12-14T09:30:35.690Z,4.30
2017-12-14T09:33:03.970Z,4.30
2017-12-14T09:35:32.218Z,4.40
2017-12-14T09:38:00.494Z,4.50
2017-12-14T09:40:30.060Z,4.50
2017-12-14T09:42:58.333Z,4.60
2017-12-14T09:45:26.587Z,4.60
2017-12-14T09:47:54.857Z,4.60
2017-12-14T09:50:23.098Z,4.60
2017-12-14T09:52:51.375Z,4.60
2017-12-14T09:55:19.616Z,4.60
2017-12-14T09:57:47.962Z,4.60
2017-12-14T10:00:16.145Z,4.60
2017-12-14T10:02:44.418Z,4.50
2017-12-14T10:05:12.657Z,4.60
2017-12-14T10:07:40.934Z,4.60
2017-12-14T10:10:09.173Z,4.60
2017-12-14T10:12:37.415Z,4.70
2017-12-14T10:15:05.710Z,4.80
2017-12-14T10:17:33.986Z,4.80
2017-12-14T10:20:02.274Z,4.80
2017-12-14T10:22:30.566Z,4.90
2017-12-14T10:24:59.782Z,4.90
2017-12-14T10:27:28.716Z,4.90
2017-12-14T10:29:57.909Z,4.90
2017-12-14T10:32:26.219Z,4.90
2017-12-14T10:34:54.505Z,4.90
2017-12-14T10:37:22.754Z,4.80
2017-12-14T10:39:50.994Z,4.90
2017-12-14T10:42:19.277Z,4.80
2017-12-14T10:44:47.526Z,4.90
2017-12-14T10:47:15.802Z,4.90
2017-12-14T10:49:44.055Z,4.90
2017-12-14T10:52:12.336Z,4.90
2017-12-14T10:54:40.584Z,4.90
2017-12-14T10:57:08.872Z,4.90
2017-12-14T10:59:37.106Z,5.00
2017-12-14T11:02:05.346Z,5.10
2017-12-14T11:04:33.622Z,5.20
2017-12-14T11:07:01.859Z,5.10
2017-12-14T11:09:30.138Z,5.20
2017-12-14T11:11:59.205Z,5.20
2017-12-14T11:14:28.566Z,5.20
2017-12-14T11:16:56.846Z,5.10
2017-12-14T11:19:25.085Z,5.10
2017-12-14T11:21:53.353Z,5.10
2017-12-14T11:24:21.594Z,5.10
2017-12-14T11:26:49.098Z,5.00
2017-12-14T11:29:17.880Z,5.00
2017-12-14T11:31:46.919Z,5.10
2017-12-14T11:34:15.167Z,5.10
2017-12-14T11:36:43.415Z,5.10
2017-12-14T11:39:11.690Z,5.20
2017-12-14T11:41:39.929Z,5.20
2017-12-14T11:44:07.438Z,5.10
2017-12-14T11:46:35.683Z,5.10
2017-12-14T11:49:03.953Z,5.10
2017-12-14T11:51:32.210Z,5.10
2017-12-14T11:54:00.484Z,5.10
2017-12-14T11:56:29.682Z,5.20
2017-12-14T11:58:59.201Z,5.10
2017-12-14T12:01:28.622Z,5.10
2017-12-14T12:03:56.868Z,5.10
2017-12-14T12:06:25.151Z,5.20
2017-12-14T12:08:53.402Z,5.30
2017-12-14T12:11:21.656Z,5.30
2017-12-14T12:13:49.942Z,5.40
2017-12-14T12:16:18.217Z,5.30
2017-12-14T12:18:46.475Z,5.40
2017-12-14T12:21:14.742Z,5.30
2017-12-14T12:23:43.017Z,5.20
2017-12-14T12:26:11.286Z,5.30
2017-12-14T12:28:39.567Z,5.20
2017-12-14T12:31:07.817Z,5.20
2017-12-14T12:33:36.090Z,5.20
2017-12-14T12:36:04.366Z,5.20
2017-12-14T12:38:32.620Z,5.20
2017-12-14T12:41:00.912Z,5.20
2017-12-14T12:43:30.481Z,5.20
2017-12-14T12:45:59.830Z,5.10
2017-12-14T12:48:28.979Z,5.10
2017-12-14T12:50:57.979Z,5.20
2017-12-14T12:53:26.255Z,5.20
2017-12-14T12:55:54.530Z,5.10
2017-12-14T12:58:22.778Z,5.10
2017-12-14T13:00:51.043Z,5.10
2017-12-14T13:03:19.317Z,5.10
2017-12-14T13:05:47.607Z,5.10
2017-12-14T13:08:15.851Z,5.10
2017-12-14T13:10:47.390Z,5.10
2017-12-14T13:13:15.686Z,5.10
2017-12-14T13:15:43.925Z,5.10
2017-12-14T13:18:12.178Z,5.10
2017-12-14T13:20:40.453Z,5.10
2017-12-14T13:23:08.702Z,5.10
2017-12-14T13:25:36.210Z,5.10
2017-12-14T13:28:04.498Z,5.20
2017-12-14T13:30:32.756Z,5.20
2017-12-14T13:33:01.047Z,5.20
2017-12-14T13:35:30.211Z,5.20
2017-12-14T13:37:59.085Z,5.10
2017-12-14T13:40:27.450Z,5.00
2017-12-14T13:42:55.699Z,5.00
2017-12-14T13:45:23.979Z,5.00
2017-12-14T13:47:52.242Z,4.90
2017-12-14T13:50:20.490Z,4.90
2017-12-14T13:52:48.730Z,5.00
2017-12-14T13:55:17.008Z,5.00
2017-12-14T13:57:45.294Z,5.00
2017-12-14T14:00:13.580Z,5.00
2017-12-14T14:02:41.826Z,4.90
2017-12-14T14:05:10.101Z,4.90
2017-12-14T14:07:37.614Z,4.90
2017-12-14T14:10:05.862Z,5.00
2017-12-14T14:12:34.110Z,4.90
2017-12-14T14:15:02.404Z,4.90
2017-12-14T14:17:30.666Z,4.90
2017-12-14T14:20:02.582Z,4.90
2017-12-14T14:22:30.834Z,4.80
2017-12-14T14:25:00.094Z,4.80
2017-12-14T14:27:28.995Z,4.80
2017-12-14T14:29:57.275Z,4.80
2017-12-14T14:32:25.526Z,4.80
2017-12-14T14:34:53.811Z,4.70
2017-12-14T14:37:22.063Z,4.70
2017-12-14T14:39:50.325Z,4.70
2017-12-14T14:42:18.565Z,4.70
2017-12-14T14:44:46.850Z,4.70
2017-12-14T14:47:15.094Z,4.60
2017-12-14T14:49:43.333Z,4.60
2017-12-14T14:52:11.606Z,4.60
2017-12-14T14:54:39.891Z,4.60
2017-12-14T14:57:08.125Z,4.60
2017-12-14T14:59:36.414Z,4.60
2017-12-14T15:02:04.657Z,4.60
2017-12-14T15:04:32.902Z,4.70
2017-12-14T15:07:01.182Z,4.70
2017-12-14T15:09:29.426Z,4.60
2017-12-14T15:11:58.811Z,4.60
2017-12-14T15:14:27.787Z,4.50
2017-12-14T15:16:56.073Z,4.50
2017-12-14T15:19:24.314Z,4.60
2017-12-14T15:21:52.553Z,4.60
2017-12-14T15:24:20.832Z,4.60
2017-12-14T15:26:49.070Z,4.50
2017-12-14T15:29:17.362Z,4.50
2017-12-14T15:31:45.607Z,4.40
2017-12-14T15:34:13.845Z,4.40
2017-12-14T15:36:42.137Z,4.30
2017-12-14T15:39:10.391Z,4.40
2017-12-14T15:41:38.677Z,4.30
2017-12-14T15:44:06.211Z,4.30
2017-12-14T15:46:34.458Z,4.40
2017-12-14T15:49:02.706Z,4.40
2017-12-14T15:51:30.982Z,4.40
2017-12-14T15:54:05.358Z,4.50
2017-12-14T15:56:33.631Z,4.40
2017-12-14T15:59:01.911Z,4.40
2017-12-14T16:01:30.182Z,4.40
2017-12-14T16:03:59.269Z,4.40
2017-12-14T16:06:28.782Z,4.40
2017-12-14T16:08:58.242Z,4.40
2017-12-14T16:11:26.625Z,4.30
2017-12-14T16:13:54.865Z,4.40
2017-12-14T16:16:23.151Z,4.40
2017-12-14T16:18:51.393Z,4.30
2017-12-14T16:21:19.634Z,4.30
2017-12-14T16:23:47.915Z,4.30
2017-12-14T16:26:16.162Z,4.40
2017-12-14T16:28:44.442Z,4.30
2017-12-14T16:31:12.681Z,4.30
2017-12-14T16:33:40.962Z,4.30
2017-12-14T16:36:09.206Z,4.20
2017-12-14T16:38:37.484Z,4.20
2017-12-14T16:41:05.762Z,4.20
2017-12-14T16:43:34.007Z,4.20
2017-12-14T16:46:02.605Z,4.20
2017-12-14T16:48:30.892Z,4.20
2017-12-14T16:51:00.358Z,4.20
2017-12-14T16:53:29.928Z,4.20
2017-12-14T16:55:59.033Z,4.30
2017-12-14T16:58:27.347Z,4.30
2017-12-14T17:00:55.598Z,4.30
2017-12-14T17:03:23.841Z,4.20
2017-12-14T17:05:52.118Z,4.20
2017-12-14T17:08:19.634Z,4.20
2017-12-14T17:10:47.877Z,4.10
2017-12-14T17:13:16.126Z,4.10
2017-12-14T17:15:44.401Z,4.00
2017-12-14T17:18:11.913Z,4.00
2017-12-14T17:20:40.166Z,4.00
2017-12-14T17:23:08.423Z,4.00
2017-12-14T17:25:36.701Z,4.00
2017-12-14T17:28:04.943Z,4.10
2017-12-14T17:30:33.185Z,4.10
2017-12-14T17:33:01.450Z,4.00
2017-12-14T17:35:29.701Z,4.00
2017-12-14T17:37:58.811Z,3.90
2017-12-14T17:40:26.281Z,3.90
2017-12-14T17:42:54.553Z,3.90
2017-12-14T17:45:22.832Z,3.90
2017-12-14T17:47:51.069Z,3.90
2017-12-14T17:50:19.438Z,4.00
2017-12-14T17:52:47.682Z,3.90
2017-12-14T17:55:15.937Z,3.90
2017-12-14T17:57:44.222Z,3.90
2017-12-14T18:00:12.465Z,3.90
2017-12-14T18:02:40.718Z,3.90
2017-12-14T18:05:09.930Z,3.90
2017-12-14T18:07:38.206Z,3.90
2017-12-14T18:10:06.445Z,3.90
2017-12-14T18:12:34.713Z,3.90
2017-12-14T18:15:04.906Z,3.90
2017-12-14T18:17:33.185Z,3.90
2017-12-14T18:20:01.431Z,4.00
2017-12-14T18:22:29.709Z,4.00
2017-12-14T18:24:58.806Z,3.90
2017-12-14T18:27:27.824Z,4.00
2017-12-14T18:29:56.222Z,4.00
2017-12-14T18:32:24.466Z,4.00
2017-12-14T18:34:52.757Z,4.00
2017-12-14T18:37:21.033Z,4.00
2017-12-14T18:39:49.277Z,4.00
2017-12-14T18:42:17.561Z,4.00
2017-12-14T18:44:45.814Z,4.00
2017-12-14T18:47:14.049Z,4.00
2017-12-14T18:49:42.334Z,4.10
2017-12-14T18:52:10.607Z,4.00
2017-12-14T18:54:38.895Z,4.00
2017-12-14T18:57:07.171Z,4.00
2017-12-14T18:59:35.415Z,4.10
2017-12-14T19:02:03.690Z,4.20
2017-12-14T19:04:31.969Z,4.20
2017-12-14T19:06:59.450Z,4.20
2017-12-14T19:09:28.195Z,4.20
2017-12-14T19:11:56.437Z,4.20
2017-12-14T19:14:24.708Z,4.20
2017-12-14T19:16:52.963Z,4.30
2017-12-14T19:19:21.253Z,4.30
2017-12-14T19:21:49.512Z,4.40
2017-12-14T19:24:17.754Z,4.30
2017-12-14T19:26:46.038Z,4.30
2017-12-14T19:29:14.281Z,4.30
2017-12-14T19:31:42.522Z,4.30
2017-12-14T19:34:10.802Z,4.30
2017-12-14T19:36:39.081Z,4.30
2017-12-14T19:39:07.414Z,4.30
2017-12-14T19:41:35.662Z,4.20
2017-12-14T19:44:03.914Z,4.20
2017-12-14T19:46:32.248Z,4.30
2017-12-14T19:48:59.726Z,4.30
2017-12-14T19:51:28.879Z,4.20
2017-12-14T19:53:57.968Z,4.20
2017-12-14T19:56:26.226Z,4.20
2017-12-14T19:58:54.509Z,4.20
2017-12-14T20:01:22.754Z,4.20
2017-12-14T20:03:51.060Z,4.20
2017-12-14T20:06:19.330Z,4.20
2017-12-14T20:08:47.605Z,4.30
2017-12-14T20:11:15.844Z,4.30
2017-12-14T20:13:44.123Z,4.30
2017-12-14T20:16:12.373Z,4.30
2017-12-14T20:18:40.715Z,4.30
2017-12-14T20:21:09.005Z,4.40
2017-12-14T20:23:36.477Z,4.30
2017-12-14T20:26:04.753Z,4.30
2017-12-14T20:28:33.058Z,4.30
2017-12-14T20:31:01.341Z,4.30
2017-12-14T20:33:29.640Z,4.30
2017-12-14T20:35:58.665Z,4.30
2017-12-14T20:38:26.957Z,4.30
2017-12-14T20:40:55.250Z,4.20
2017-12-14T20:43:23.557Z,4.10
2017-12-14T20:45:51.845Z,4.10
2017-12-14T20:48:19.405Z,4.10
2017-12-14T20:50:47.680Z,4.10
2017-12-14T20:53:15.978Z,4.10
2017-12-14T20:55:44.325Z,4.10
2017-12-14T20:58:12.628Z,4.20
2017-12-14T21:00:40.883Z,4.30
2017-12-14T21:03:09.213Z,4.30
2017-12-14T21:05:37.510Z,4.20
2017-12-14T21:08:05.864Z,4.20
2017-12-14T21:10:33.393Z,4.20
2017-12-14T21:13:01.693Z,4.20
2017-12-14T21:15:30.013Z,4.20
2017-12-14T21:17:58.617Z,4.20
2017-12-14T21:20:26.909Z,4.20
2017-12-14T21:22:55.146Z,4.20
2017-12-14T21:25:23.476Z,4.20
2017-12-14T21:27:51.750Z,4.20
2017-12-14T21:30:19.995Z,4.20
2017-12-14T21:32:48.273Z,4.20
2017-12-14T21:35:16.519Z,4.10
2017-12-14T21:37:44.793Z,4.10
2017-12-14T21:40:13.080Z,4.00
2017-12-14T21:42:41.377Z,4.00
2017-12-14T21:45:09.682Z,3.90
2017-12-14T21:47:37.970Z,4.00
2017-12-14T21:50:06.214Z,3.90
2017-12-14T21:52:34.455Z,3.90
2017-12-14T21:55:02.793Z,3.90
2017-12-14T21:57:31.037Z,3.90
2017-12-14T22:00:04.989Z,3.80
2017-12-14T22:02:33.275Z,3.80
2017-12-14T22:05:01.567Z,3.90
2017-12-14T22:07:29.848Z,3.90
2017-12-14T22:09:58.959Z,3.90
2017-12-14T22:12:28.073Z,3.90
2017-12-14T22:14:57.010Z,3.90
2017-12-14T22:17:25.984Z,4.00
2017-12-14T22:19:54.589Z,3.90
2017-12-14T22:22:22.920Z,3.90
2017-12-14T22:24:51.220Z,3.90
2017-12-14T22:27:19.513Z,3.90
2017-12-14T22:29:47.837Z,3.80
2017-12-14T22:32:16.128Z,3.80
2017-12-14T22:34:44.450Z,3.80
2017-12-14T22:37:12.733Z,3.80
2017-12-14T22:39:41.006Z,3.80
2017-12-14T22:42:09.284Z,3.80
2017-12-14T22:44:36.794Z,3.80
2017-12-14T22:47:05.034Z,3.80
2017-12-14T22:49:33.318Z,3.80
2017-12-14T22:52:01.609Z,3.80
2017-12-14T22:54:29.907Z,3.80
2017-12-14T22:56:58.493Z,3.80
2017-12-14T22:59:26.747Z,3.80
2017-12-14T23:01:55.018Z,3.80
2017-12-14T23:04:23.257Z,3.70
2017-12-14T23:06:51.526Z,3.70
2017-12-14T23:09:19.774Z,3.80
2017-12-14T23:11:48.058Z,3.80
2017-12-14T23:14:16.310Z,3.80
2017-12-14T23:16:44.573Z,3.70
2017-12-14T23:19:12.854Z,3.70
2017-12-14T23:21:41.097Z,3.80
2017-12-14T23:24:09.337Z,3.80
2017-12-14T23:26:37.618Z,3.70
2017-12-14T23:29:05.862Z,3.70
2017-12-14T23:31:34.141Z,3.70
2017-12-14T23:34:02.377Z,3.60
2017-12-14T23:36:30.626Z,3.60
2017-12-14T23:38:59.978Z,3.60
2017-12-14T23:41:28.200Z,3.70
2017-12-14T23:43:56.482Z,3.70
2017-12-14T23:46:24.753Z,3.60
2017-12-14T23:48:53.030Z,3.60
2017-12-14T23:51:21.272Z,3.60
2017-12-14T23:53:49.554Z,3.50
2017-12-14T23:56:17.797Z,3.50
2017-12-14T23:58:46.042Z,3.50
